Detalii statie Pioneer South Africa DEMO [00001DA1]

Toti senzorii

Date Solar radiation Dgt [W/mm]Precipitatii [mm]Viteza vantului [m/s]Voltaj baterie [mV]Leaf Wetness [Min]HC Air temperature [C]HC Relative humidity [%]Punctul de roua [C]
mediesumamediemaxultimatimpmedieminmaxmediemediemin
2018-06-20 10:00:00 326 0 0 0.1 6894 18.15 14.84 21.05 33.13 1.3 0.7
2018-06-20 11:00:00 512 0 0 0.2 6884 22.7 21.19 24.01 20.5 -1.5 -3.6
2018-06-20 12:00:00 585 0 0.5 1.1 6894 23.2 22.58 23.93 15.69 -4.5 -6
2018-06-20 13:00:00 593 0 0.8 1.4 6884 23.66 23.1 24.46 13.04 -6.7 -7.7
2018-06-20 14:00:00 531 0 0.6 1.1 6884 24.49 23.26 25.72 12.75 -6.5 -7.9
2018-06-20 15:00:00 415 0 0.7 1.4 6884 24.28 23.62 25.23 13.03 -6.2 -7.3
2018-06-20 16:00:00 245 0 0.2 0.5 6874 24.04 23.24 24.96 13.34 -6 -6.9
2018-06-20 17:00:00 80 0 0.1 0.5 6708 22.05 20.34 23.18 15.88 -5.4 -7
2018-06-20 18:00:00 0 0 0 0 6582 17.47 15.92 19.75 24.97 -3.1 -3.8
2018-06-20 19:00:00 0 0 0 0 6494 14.43 13.57 15.57 36.72 -0.3 -1
2018-06-20 20:00:00 0 0 0 0 6474 12.81 12.29 13.34 40.44 -0.4 -0.8
2018-06-20 21:00:00 0 0 0 0 6464 12.18 11.92 12.59 40.18 -1 -1.7
2018-06-20 22:00:00 0 0 0 0 6444 11.21 10.98 11.86 44.02 -0.6 -1.6
2018-06-20 23:00:00 0 0 0 0 6454 10.92 10.73 11.11 44.9 -0.6 -1
2018-06-21 00:00:00 0 0 0 0 6444 10.37 10.23 10.62 52.18 0.8 -0.2
2018-06-21 01:00:00 0 0 0 0 6434 10.14 10.04 10.27 60.58 2.7 2
2018-06-21 02:00:00 0 0 0 0 6434 9.8 9.29 10.1 69.59 4.3 3.8
2018-06-21 03:00:00 0 0 0 0 6444 8.84 8.54 9.2 79.73 5.4 5.1
2018-06-21 04:00:00 0 0 0 0 6444 8.36 8.06 8.72 85.78 6 5.8
2018-06-21 05:00:00 0 0 0 0 6434 8.03 7.81 8.16 92.5 6.7 6.3
2018-06-21 06:00:00 0 0 0 0 6434 7.86 7.73 8 95.99 7.1 7
2018-06-21 07:00:00 0 0 0 0 6406 7.87 7.69 8.08 97.44 7.4 7.2
2018-06-21 08:00:00 16 0 0 0 6512 8.69 8.16 9.95 94.79 7.7 7.3
2018-06-21 09:00:00 82 0 0 0.2 6864 12.34 10.46 13.59 77.28 8.2 8
2018-06-21 10:00:00 308 0 0.1 0.5 6894 14.82 13.34 16.16 63.36 7.7 7.1
2018-06-21 11:00:00 489 0 0.5 1.1 6894 16.84 15.57 18.03 52.76 6.9 6.5
2018-06-21 12:00:00 564 0 0.5 1 6894 18.87 18.15 19.88 43.31 5.8 5.2
2018-06-21 13:00:00 573 0 0.8 1.5 6884 19.77 18.99 20.6 38.92 5.1 4.8
2018-06-21 14:00:00 515 0 1 1.7 6894 20.75 19.58 21.7 36.06 4.9 4.4
2018-06-21 15:00:00 395 0 0.6 1.4 6884 21.51 20.78 21.93 31.74 3.7 2.7
2018-06-21 16:00:00 240 0 0.5 0.9 6864 21.16 20.69 21.41 29.8 2.4 1.5
2018-06-21 17:00:00 78 0 0.2 0.8 6756 19.9 18.79 21.08 31.71 2.2 0.8
2018-06-21 18:00:00 0 0 0 0 6600 16.13 14.58 18.43 44.06 3.5 3.1
2018-06-21 19:00:00 0 0 0 0 6512 13.65 12.96 14.4 56.39 4.9 4.7
2018-06-21 20:00:00 0 0 0 0 6494 12.37 11.77 12.74 61.32 5 4.7
2018-06-21 21:00:00 0 0 0 0 6464 11.08 10.49 11.73 66.95 5 4.7
2018-06-21 22:00:00 0 0 0 0 6454 10.31 10.09 10.53 69.7 4.8 4.5
2018-06-21 23:00:00 0 0 0 0 6444 9.56 9.37 9.93 70.64 4.3 4
2018-06-22 00:00:00 0 0 0 0 6444 8.79 8.32 9.22 76.47 4.7 4
2018-06-22 01:00:00 0 0 0 0 6424 7.8 7.54 8.3 83.18 4.9 4.7
2018-06-22 02:00:00 0 0 0 0 6434 7.14 6.84 7.38 84.88 4.6 4.3
2018-06-22 03:00:00 0 0 0 0 6444 6.54 6.22 6.85 86.78 4.4 4.2
2018-06-22 04:00:00 0 0 0 0 6424 6.21 6.09 6.39 88.27 4.3 4.1
2018-06-22 05:00:00 0 0 0 0 6434 5.89 5.7 6.14 88.99 4.1 4
2018-06-22 06:00:00 0 0 0 0 6424 5.65 5.48 6.02 88.58 3.8 3.5
2018-06-22 07:00:00 0 0 0 0 6396 5.37 5.19 5.49 93.18 4.2 4.1